Terminal Aerodrome Forecast
Issued by NWS

Home | Current Version | Previous Version | Text Only | Print | Product List | Glossary On
Versions: 1 2 3 4 5 6 7 8 9 10 11 12
551
FTUS45 KRIW 252323
TAFCOD
TAF
KCOD 252323Z 2600/2624 25018G32KT P6SM SCT080
     FM260200 25025G40KT P6SM SCT140 BKN200 WS020/26055KT
     FM261300 25015G25KT P6SM SCT080 BKN150 WS017/25040KT
     FM261800 28009KT P6SM VCSH SCT050 BKN080
     FM262100 04007KT P6SM -SN SCT020 BKN035
      AMD LTD TO CLD VIS AND WIND=

USA.gov is the U.S. government's official web portal to all federal, state and local government web resources and services.